Time,TemperatureF,DewpointF,PressureIn,WindDirection,WindDirectionDegrees,WindSpeedMPH,WindSpeedGustMPH,Humidity,HourlyPrecipIn,Conditions,Clouds,dailyrainin,SoftwareType,DateUTC
2013-01-11 00:22:00,40.0,-99.9,-100.00,West,260,1.0,2.0,-999,-99.99,,,-99.99,,2013-01-11 07:22:00,
2013-01-11 00:32:00,40.0,-99.9,-100.00,West,260,1.0,2.0,-999,-99.99,,,-99.99,,2013-01-11 07:32:00,
2013-01-11 01:10:00,43.0,-99.9,-100.00,NNE,30,0.0,2.0,-999,-99.99,,,-99.99,,2013-01-11 08:10:00,
2013-01-11 01:53:00,43.0,-99.9,-100.00,NNE,30,0.0,2.0,-999,-99.99,,,-99.99,,2013-01-11 08:53:00,
2013-01-11 02:03:00,43.0,-99.9,-100.00,NNE,30,0.0,2.0,-999,-99.99,,,-99.99,,2013-01-11 09:03:00,
2013-01-11 02:32:00,43.0,-99.9,-100.00,NNE,33,0.0,1.0,-999,-99.99,,,-99.99,,2013-01-11 09:32:00,
2013-01-11 02:43:00,43.0,-99.9,-100.00,NNE,33,0.0,1.0,-999,-99.99,,,-99.99,,2013-01-11 09:43:00,
2013-01-11 02:53:00,43.0,-99.9,-100.00,NNE,33,0.0,1.0,-999,-99.99,,,-99.99,,2013-01-11 09:53:00,
2013-01-11 04:00:00,40.0,-99.9,-100.00,NE,45,0.0,1.0,-999,-99.99,,,-99.99,,2013-01-11 11:00:00,
2013-01-11 04:30:00,41.0,-99.9,-100.00,NNE,33,1.0,1.0,-999,-99.99,,,-99.99,,2013-01-11 11:30:00,
2013-01-11 04:33:00,40.0,-99.9,-100.00,NE,45,0.0,1.0,-999,-99.99,,,-99.99,,2013-01-11 11:33:00,
2013-01-11 04:43:00,40.0,-99.9,-100.00,NE,45,0.0,1.0,-999,-99.99,,,-99.99,,2013-01-11 11:43:00,
2013-01-11 04:53:00,40.0,-99.9,-100.00,NE,45,0.0,1.0,-999,-99.99,,,-99.99,,2013-01-11 11:53:00,
2013-01-11 05:20:00,42.0,-99.9,-100.00,NNW,333,1.0,1.0,-999,-99.99,,,-99.99,,2013-01-11 12:20:00,
2013-01-11 05:23:00,41.0,-99.9,-100.00,NNE,33,1.0,1.0,-999,-99.99,,,-99.99,,2013-01-11 12:23:00,
2013-01-11 06:03:00,42.0,-99.9,-100.00,NNW,333,1.0,1.0,-999,-99.99,,,-99.99,,2013-01-11 13:03:00,
2013-01-11 06:13:00,42.0,-99.9,-100.00,NNW,333,1.0,1.0,-999,-99.99,,,-99.99,,2013-01-11 13:13:00,
2013-01-11 06:40:00,42.0,-99.9,-100.00,SW,235,2.0,2.0,-999,-99.99,,,-99.99,,2013-01-11 13:40:00,
2013-01-11 07:20:00,43.0,-99.9,-100.00,WSW,249,1.0,1.0,-999,-99.99,,,-99.99,,2013-01-11 14:20:00,
2013-01-11 07:23:00,42.0,-99.9,-100.00,SW,235,2.0,2.0,-999,-99.99,,,-99.99,,2013-01-11 14:23:00,
2013-01-11 07:33:00,42.0,-99.9,-100.00,SW,235,2.0,2.0,-999,-99.99,,,-99.99,,2013-01-11 14:33:00,
2013-01-11 08:04:00,43.0,-99.9,-100.00,WSW,249,1.0,1.0,-999,-99.99,,,-99.99,,2013-01-11 15:04:00,
2013-01-11 08:13:00,43.0,-99.9,-100.00,WSW,249,1.0,1.0,-999,-99.99,,,-99.99,,2013-01-11 15:13:00,
2013-01-11 08:33:00,45.0,-99.9,-100.00,WSW,242,0.0,1.0,-999,-99.99,,,-99.99,,2013-01-11 15:33:00,
2013-01-11 08:40:00,54.0,-99.9,-100.00,NE,35,5.0,6.0,-999,-99.99,,,-99.99,,2013-01-11 15:40:00,
2013-01-11 08:43:00,45.0,-99.9,-100.00,WSW,242,0.0,1.0,-999,-99.99,,,-99.99,,2013-01-11 15:43:00,
2013-01-11 09:23:00,54.0,-99.9,-100.00,NE,35,5.0,6.0,-999,-99.99,,,-99.99,,2013-01-11 16:23:00,
2013-01-11 09:33:00,54.0,-99.9,-100.00,NE,35,5.0,6.0,-999,-99.99,,,-99.99,,2013-01-11 16:33:00,
2013-01-11 11:40:00,60.0,-99.9,-100.00,NE,54,6.0,7.0,-999,-99.99,,,-99.99,,2013-01-11 18:40:00,
2013-01-11 12:23:00,60.0,-99.9,-100.00,NE,54,6.0,7.0,-999,-99.99,,,-99.99,,2013-01-11 19:23:00,
2013-01-11 12:33:00,60.0,-99.9,-100.00,NE,54,6.0,7.0,-999,-99.99,,,-99.99,,2013-01-11 19:33:00,
2013-01-11 13:33:00,59.0,-99.9,-100.00,NNE,31,5.0,8.0,-999,-99.99,,,-99.99,,2013-01-11 20:33:00,
2013-01-11 13:43:00,59.0,-99.9,-100.00,NNE,31,5.0,8.0,-999,-99.99,,,-99.99,,2013-01-11 20:43:00,
2013-01-11 13:53:00,59.0,-99.9,-100.00,NNE,31,5.0,8.0,-999,-99.99,,,-99.99,,2013-01-11 20:53:00,
2013-01-11 15:03:00,60.0,-99.9,-100.00,ENE,57,3.0,5.0,-999,-99.99,,,-99.99,,2013-01-11 22:03:00,
2013-01-11 15:13:00,60.0,-99.9,-100.00,ENE,57,3.0,5.0,-999,-99.99,,,-99.99,,2013-01-11 22:13:00,
2013-01-11 15:23:00,60.0,-99.9,-100.00,ENE,57,3.0,5.0,-999,-99.99,,,-99.99,,2013-01-11 22:23:00,
2013-01-11 16:10:00,48.0,-99.9,-100.00,NE,49,3.0,6.0,-999,-99.99,,,-99.99,,2013-01-11 23:10:00,
2013-01-11 16:54:00,48.0,-99.9,-100.00,NE,49,3.0,6.0,-999,-99.99,,,-99.99,,2013-01-11 23:54:00,
2013-01-11 17:03:00,48.0,-99.9,-100.00,NE,49,3.0,6.0,-999,-99.99,,,-99.99,,2013-01-12 00:03:00,
2013-01-11 18:03:00,43.0,-99.9,-100.00,ENE,73,1.0,3.0,-999,-99.99,,,-99.99,,2013-01-12 01:03:00,
2013-01-11 18:13:00,43.0,-99.9,-100.00,ENE,73,1.0,3.0,-999,-99.99,,,-99.99,,2013-01-12 01:13:00,
2013-01-11 18:23:00,43.0,-99.9,-100.00,ENE,73,1.0,3.0,-999,-99.99,,,-99.99,,2013-01-12 01:23:00,
2013-01-11 18:40:00,40.0,-99.9,-100.00,ENE,73,3.0,4.0,-999,-99.99,,,-99.99,,2013-01-12 01:40:00,
2013-01-11 19:22:00,40.0,-99.9,-100.00,ENE,73,3.0,4.0,-999,-99.99,,,-99.99,,2013-01-12 02:22:00,
2013-01-11 19:33:00,40.0,-99.9,-100.00,ENE,73,3.0,4.0,-999,-99.99,,,-99.99,,2013-01-12 02:33:00,
2013-01-11 20:33:00,36.0,-99.9,-100.00,North,10,0.0,1.0,-999,-99.99,,,-99.99,,2013-01-12 03:33:00,
2013-01-11 20:43:00,36.0,-99.9,-100.00,North,10,0.0,1.0,-999,-99.99,,,-99.99,,2013-01-12 03:43:00,
2013-01-11 20:53:00,36.0,-99.9,-100.00,North,10,0.0,1.0,-999,-99.99,,,-99.99,,2013-01-12 03:53:00,
2013-01-11 21:22:00,35.0,-99.9,-100.00,NNW,343,0.0,1.0,-999,-99.99,,,-99.99,,2013-01-12 04:22:00,
2013-01-11 21:33:00,35.0,-99.9,-100.00,NNW,343,0.0,1.0,-999,-99.99,,,-99.99,,2013-01-12 04:33:00,
2013-01-11 21:43:00,35.0,-99.9,-100.00,NNW,343,0.0,1.0,-999,-99.99,,,-99.99,,2013-01-12 04:43:00,
2013-01-11 21:53:00,34.0,-99.9,-100.00,ENE,77,0.0,2.0,-999,-99.99,,,-99.99,,2013-01-12 04:53:00,
2013-01-11 22:04:00,33.0,-99.9,-100.00,NNE,33,0.0,1.0,-999,-99.99,,,-99.99,,2013-01-12 05:04:00,
2013-01-11 22:12:00,33.0,-99.9,-100.00,NNE,33,0.0,1.0,-999,-99.99,,,-99.99,,2013-01-12 05:12:00,
2013-01-11 22:22:00,32.0,-99.9,-100.00,North,5,0.0,1.0,-999,-99.99,,,-99.99,,2013-01-12 05:22:00,
2013-01-11 22:32:00,32.0,-99.9,-100.00,North,5,0.0,1.0,-999,-99.99,,,-99.99,,2013-01-12 05:32:00,
2013-01-11 23:03:00,32.0,-99.9,-100.00,NNW,344,1.0,1.0,-999,-99.99,,,-99.99,,2013-01-12 06:03:00,
2013-01-11 23:12:00,32.0,-99.9,-100.00,NNW,344,1.0,1.0,-999,-99.99,,,-99.99,,2013-01-12 06:12:00,
2013-01-11 23:23:00,32.0,-99.9,-100.00,North,0,2.0,2.0,-999,-99.99,,,-99.99,,2013-01-12 06:23:00,
2013-01-11 23:33:00,32.0,-99.9,-100.00,North,0,2.0,2.0,-999,-99.99,,,-99.99,,2013-01-12 06:33:00,